Leonie — PHLE — position and weather

sailwx.info

Track history (hours):
 
Tides and Currents Weather Stations Pressure Air Temp Water Temp Dewpoint Dewpoint Depression Visibility Wind Speed Wind Dir Waves Ship Positions

Leonie

Last reported at 2015-Aug-01 09:33 UTC. Time now 2015-Aug-01 09:46 UTC.
Position N 55°27' E 014°54'.

Length 90 m; draft 5.6 m.

Type: Cargo ship. MMSI: 244772000.

Date/timePositionNaut miles runAvg speedWind from/ knotsBaromVisibWave heightAir tempDewpointWater temp
2015-Aug-01 09:33N 55°27' E 014°54'1111.4
2015-Aug-01 08:33N 55°21' E 014°38'1111.1
2015-Aug-01 07:33N 55°12' E 014°25'1111.1
2015-Aug-01 06:33N 55°04' E 014°12'1111.0
2015-Aug-01 05:33N 54°59' E 013°55'1111.2
2015-Aug-01 04:33N 54°55' E 013°37'5510.8
2015-Jul-31 23:30N 54°28' E 012°14'1010.3
2015-Jul-31 22:34N 54°24' E 011°59'1111.3
2015-Jul-31 21:33N 54°26' E 011°40'1211.8
2015-Jul-31 20:33N 54°31' E 011°22'1111.1
2015-Jul-31 19:33N 54°34' E 011°03'1111.2
2015-Jul-31 18:33N 54°31' E 010°44'1111.3
2015-Jul-31 17:33N 54°29' E 010°25'1010.2
2015-Jul-31 16:33N 54°23' E 010°11'2 2.0
2015-Jul-31 15:33N 54°22' E 010°08'7 6.9
2015-Jul-31 14:33N 54°20' E 009°57'6 6.4
2015-Jul-31 13:33N 54°21' E 009°46'7 6.6
2015-Jul-31 12:33N 54°16' E 009°38'3 2.9
2015-Jul-31 11:33N 54°13' E 009°36'9 8.5
2015-Jul-31 10:33N 54°09' E 009°23'8 8.3
2015-Jul-31 09:33N 54°02' E 009°18'9 8.5
2015-Jul-31 08:33N 53°54' E 009°10'1 1.3
2015-Jul-31 07:33N 53°54' E 009°09'2 2.4
2015-Jul-31 06:33N 53°53' E 009°05'2 1.6
2015-Jul-31 05:33N 53°52' E 009°02'7 7.0
2015-Jul-31 04:34N 53°50' E 008°51'7 6.9
2015-Jul-31 03:33N 53°54' E 008°41'7 7.1
2015-Jul-31 02:33N 53°58' E 008°31'8 8.1
2015-Jul-31 01:34N 53°59' E 008°18'9 9.2
2015-Jul-31 00:32N 53°58' E 008°02'10 9.9
2015-Jul-30 23:33N 53°56' E 007°46'1010.4
2015-Jul-30 22:33N 53°54' E 007°29'1110.7
2015-Jul-30 21:33N 53°51' E 007°11'2211.0
2015-Jul-30 19:32N 53°46' E 006°34'1211.3
2015-Jul-30 18:28N 53°43' E 006°15'1010.9
2015-Jul-30 17:33N 53°39' E 005°59'1111.1
2015-Jul-30 16:33N 53°36' E 005°41'1111.1
2015-Jul-30 15:33N 53°33' E 005°23'1110.9
2015-Jul-30 14:33N 53°29' E 005°06'1010.2
2015-Jul-30 13:33N 53°27' E 004°49'9 8.5
2015-Jul-30 12:32N 53°20' E 004°39'18 8.9
2015-Jul-30 10:33N 53°05' E 004°26'9 8.9
2015-Jul-30 09:33N 52°57' E 004°19'9 9.0
2015-Jul-30 08:33N 52°49' E 004°11'9 8.8
2015-Jul-30 07:33N 52°42' E 004°01'9 9.0
2015-Jul-30 06:33N 52°36' E 003°52'8610.8
2015-Jul-29 22:33N 51°32' E 002°17'1111.5
2015-Jul-29 21:33N 51°21' E 002°10'1111.4
2015-Jul-29 20:33N 51°12' E 001°59'1010.4
2015-Jul-29 19:33N 51°05' E 001°47'8 7.9
2015-Jul-29 18:33N 51°02' E 001°58'1211.7
2015-Jul-29 17:33N 51°04' E 002°17'2 1.4
2015-Jul-29 16:10N 51°03' E 002°20'0 0.0
2015-Jul-29 15:31N 51°03' E 002°20'0 0.0
2015-Jul-29 14:16N 51°03' E 002°20'0 0.0
2015-Jul-29 10:07N 51°03' E 002°20'0 0.0
2015-Jul-29 07:04N 51°03' E 002°20'0 0.0
2015-Jul-29 06:25N 51°03' E 002°20'0 0.0
2015-Jul-29 05:31N 51°03' E 002°20'0 0.0
2015-Jul-29 04:31N 51°03' E 002°20'0 0.0
2015-Jul-29 03:31N 51°03' E 002°20'0 0.0
2015-Jul-28 22:04N 51°03' E 002°20'1 1.1
2015-Jul-28 21:23N 51°03' E 002°21'910.5
2015-Jul-28 20:33N 51°03' E 002°07'6 6.1
2015-Jul-28 19:33N 51°09' E 002°11'9 8.6
2015-Jul-28 18:33N 51°12' E 002°24'1010.1
2015-Jul-28 17:33N 51°19' E 002°36'9 9.4
2015-Jul-28 16:33N 51°22' E 002°50'1010.3
2015-Jul-28 15:33N 51°22' E 003°07'3 2.5
2015-Jul-28 14:31N 51°21' E 003°11'0 0.0
2015-Jul-28 13:31N 51°21' E 003°11'0 0.0
2015-Jul-28 12:29N 51°21' E 003°11'0 0.0
2015-Jul-28 11:32N 51°21' E 003°11'0 0.0
2015-Jul-28 10:32N 51°21' E 003°11'0 0.0
2015-Jul-28 09:32N 51°21' E 003°11'0 0.0
2015-Jul-28 08:31N 51°21' E 003°11'0 0.0
2015-Jul-28 07:31N 51°21' E 003°11'0 0.0
2015-Jul-28 06:31N 51°21' E 003°11'0 0.0
2015-Jul-28 05:31N 51°21' E 003°11'0 0.0
2015-Jul-28 04:31N 51°21' E 003°11'0 0.0
2015-Jul-28 03:31N 51°21' E 003°11'0 0.0
2015-Jul-28 02:31N 51°21' E 003°11'0 0.0
2015-Jul-28 01:31N 51°21' E 003°11'0 0.0
2015-Jul-28 00:31N 51°21' E 003°11'0 0.0
2015-Jul-27 23:31N 51°21' E 003°11'0 0.0
2015-Jul-27 22:31N 51°21' E 003°11'0 0.0
2015-Jul-27 21:31N 51°21' E 003°11'0 0.0
2015-Jul-27 20:31N 51°21' E 003°11'0 0.0
2015-Jul-27 19:25N 51°21' E 003°11'0 0.0
2015-Jul-27 18:08N 51°21' E 003°11'0 0.0
2015-Jul-27 17:33N 51°21' E 003°11'0 0.0
2015-Jul-27 16:28N 51°21' E 003°11'0 0.0
2015-Jul-27 15:31N 51°21' E 003°11'0 0.0
2015-Jul-27 14:30N 51°21' E 003°11'0 0.0
2015-Jul-27 13:31N 51°21' E 003°11'0 0.0
2015-Jul-27 12:28N 51°21' E 003°11'0 0.0
2015-Jul-27 11:31N 51°21' E 003°11'0 0.0
2015-Jul-27 10:31N 51°21' E 003°11'0 0.0
2015-Jul-27 09:31N 51°21' E 003°11'0 0.0
2015-Jul-27 08:31N 51°21' E 003°11'0 0.0
2015-Jul-27 07:31N 51°21' E 003°11'0 0.0
2015-Jul-27 06:31N 51°21' E 003°11'0 0.0
2015-Jul-27 05:31N 51°21' E 003°11'0 0.0
2015-Jul-27 04:31N 51°21' E 003°11'0 0.0
2015-Jul-27 03:31N 51°21' E 003°11'0 0.0
2015-Jul-27 02:31N 51°21' E 003°11'0 0.0
2015-Jul-27 01:31N 51°21' E 003°11'0 0.0
2015-Jul-27 00:31N 51°21' E 003°11'0 0.0
2015-Jul-26 23:31N 51°21' E 003°11'0 0.0
2015-Jul-26 22:31N 51°21' E 003°11'0 0.0
2015-Jul-26 21:31N 51°21' E 003°11'0 0.0
2015-Jul-26 20:31N 51°21' E 003°11'0 0.0
2015-Jul-26 19:31N 51°21' E 003°11'0 0.0
2015-Jul-26 18:31N 51°21' E 003°11'0 0.0
2015-Jul-26 17:31N 51°21' E 003°11'0 0.0
2015-Jul-26 16:31N 51°21' E 003°11'0 0.0
2015-Jul-26 15:31N 51°21' E 003°11'0 0.0
2015-Jul-26 14:31N 51°21' E 003°11'0 0.0
2015-Jul-26 13:31N 51°21' E 003°11'0 0.0
2015-Jul-26 12:31N 51°21' E 003°11'0 0.0
2015-Jul-26 11:31N 51°21' E 003°11'0 0.0
2015-Jul-26 10:31N 51°21' E 003°11'0 0.0
2015-Jul-26 09:31N 51°21' E 003°11'0 0.0
2015-Jul-26 08:31N 51°21' E 003°11'0 0.0
2015-Jul-26 07:31N 51°21' E 003°11'0 0.0
2015-Jul-26 06:31N 51°21' E 003°11'0 0.0
2015-Jul-26 05:31N 51°21' E 003°11'0 0.0
2015-Jul-26 04:28N 51°21' E 003°11'0 0.0
2015-Jul-26 03:31N 51°21' E 003°11'0 0.0
2015-Jul-26 02:31N 51°21' E 003°11'0 0.0
2015-Jul-25 19:28N 51°21' E 003°11'0 0.0
2015-Jul-25 18:28N 51°21' E 003°11'0 0.0
2015-Jul-25 17:31N 51°21' E 003°11'0 0.0
2015-Jul-25 16:31N 51°21' E 003°11'0 0.0
2015-Jul-25 15:31N 51°21' E 003°11'0 0.0
2015-Jul-25 14:31N 51°21' E 003°11'0 0.0
2015-Jul-25 13:31N 51°21' E 003°11'0 0.0
2015-Jul-25 12:31N 51°21' E 003°11'0 0.0
2015-Jul-25 11:31N 51°21' E 003°11'0 0.0
2015-Jul-25 10:31N 51°21' E 003°11'0 0.0
2015-Jul-25 09:31N 51°21' E 003°11'0 0.0
2015-Jul-25 08:31N 51°21' E 003°11'0 0.0
2015-Jul-25 07:31N 51°21' E 003°11'0 0.0
2015-Jul-25 06:31N 51°21' E 003°11'0 0.0
2015-Jul-25 05:31N 51°21' E 003°11'0 0.0
2015-Jul-25 04:31N 51°21' E 003°11'0 0.0
2015-Jul-25 03:31N 51°21' E 003°11'0 0.0
2015-Jul-25 02:31N 51°21' E 003°11'0 0.0
2015-Jul-25 01:25N 51°21' E 003°11'0 0.0
2015-Jul-25 00:31N 51°21' E 003°11'0 0.0
2015-Jul-24 23:31N 51°21' E 003°11'0 0.0
2015-Jul-24 22:31N 51°21' E 003°11'0 0.0
2015-Jul-24 21:31N 51°21' E 003°11'0 0.0
2015-Jul-24 20:31N 51°21' E 003°11'0 0.0
2015-Jul-24 19:31N 51°21' E 003°11'0 0.0
2015-Jul-24 18:31N 51°21' E 003°11'0 0.0
2015-Jul-24 17:31N 51°21' E 003°11'0 0.0
2015-Jul-24 16:31N 51°21' E 003°11'0 0.0
2015-Jul-24 15:31N 51°21' E 003°11'0 0.0
2015-Jul-24 14:31N 51°21' E 003°11'0 0.0
2015-Jul-24 13:31N 51°21' E 003°11'0 0.0
2015-Jul-24 12:31N 51°21' E 003°11'0 0.0
2015-Jul-24 11:31N 51°21' E 003°11'0 0.0
2015-Jul-24 10:31N 51°21' E 003°11'0 0.0
2015-Jul-24 09:31N 51°21' E 003°11'0 0.0
2015-Jul-24 08:31N 51°21' E 003°11'0 0.0
2015-Jul-24 07:31N 51°21' E 003°11'0 0.0
2015-Jul-24 06:31N 51°21' E 003°11'0 0.0
2015-Jul-24 05:28N 51°21' E 003°11'0 0.0
2015-Jul-24 04:31N 51°21' E 003°11'0 0.0
2015-Jul-24 03:31N 51°21' E 003°11'0 0.0
2015-Jul-24 02:28N 51°21' E 003°11'0 0.0
2015-Jul-24 01:31N 51°21' E 003°11'0 0.0
2015-Jul-24 00:31N 51°21' E 003°11'0 0.0
2015-Jul-23 23:28N 51°21' E 003°11'0 0.0
2015-Jul-23 22:31N 51°21' E 003°11'0 0.0
2015-Jul-23 21:28N 51°21' E 003°11'0 0.0
2015-Jul-23 20:31N 51°21' E 003°11'0 0.0
2015-Jul-23 18:25N 51°21' E 003°11'0 0.0
2015-Jul-23 06:31N 51°21' E 003°11'0 0.0
2015-Jul-23 05:31N 51°21' E 003°11'0 0.0
2015-Jul-23 04:10N 51°21' E 003°11'0 0.0
2015-Jul-23 03:31N 51°21' E 003°11'0 0.0
2015-Jul-22 17:07N 51°21' E 003°11'0 0.0
2015-Jul-22 16:31N 51°21' E 003°11'0 0.0
2015-Jul-22 15:31N 51°21' E 003°11'0 0.0
2015-Jul-22 14:31N 51°21' E 003°11'0 0.0
2015-Jul-22 13:31N 51°21' E 003°11'0 0.0
2015-Jul-22 12:31N 51°21' E 003°11'0 0.0
2015-Jul-22 11:28N 51°21' E 003°11'0 0.0
2015-Jul-22 10:31N 51°21' E 003°11'  
Track history (hours):
 
Tides and Currents Weather Stations Pressure Air Temp Water Temp Dewpoint Dewpoint Depression Visibility Wind Speed Wind Dir Waves Ship Positions

Leonie

Last reported at 2015-Aug-01 09:33 UTC. Time now 2015-Aug-01 09:46 UTC.
Position N 55°27' E 014°54'.

Length 90 m; draft 5.6 m.

Type: Cargo ship. MMSI: 244772000.

Date/timePositionNaut miles runAvg speedWind from/ knotsBaromVisibWave heightAir tempDewpointWater temp
2015-Aug-01 09:33N 55°27' E 014°54'1111.4
2015-Aug-01 08:33N 55°21' E 014°38'1111.1
2015-Aug-01 07:33N 55°12' E 014°25'1111.1
2015-Aug-01 06:33N 55°04' E 014°12'1111.0
2015-Aug-01 05:33N 54°59' E 013°55'1111.2
2015-Aug-01 04:33N 54°55' E 013°37'5510.8
2015-Jul-31 23:30N 54°28' E 012°14'1010.3
2015-Jul-31 22:34N 54°24' E 011°59'1111.3
2015-Jul-31 21:33N 54°26' E 011°40'1211.8
2015-Jul-31 20:33N 54°31' E 011°22'1111.1
2015-Jul-31 19:33N 54°34' E 011°03'1111.2
2015-Jul-31 18:33N 54°31' E 010°44'1111.3
2015-Jul-31 17:33N 54°29' E 010°25'1010.2
2015-Jul-31 16:33N 54°23' E 010°11'2 2.0
2015-Jul-31 15:33N 54°22' E 010°08'7 6.9
2015-Jul-31 14:33N 54°20' E 009°57'6 6.4
2015-Jul-31 13:33N 54°21' E 009°46'7 6.6
2015-Jul-31 12:33N 54°16' E 009°38'3 2.9
2015-Jul-31 11:33N 54°13' E 009°36'9 8.5
2015-Jul-31 10:33N 54°09' E 009°23'8 8.3
2015-Jul-31 09:33N 54°02' E 009°18'9 8.5
2015-Jul-31 08:33N 53°54' E 009°10'1 1.3
2015-Jul-31 07:33N 53°54' E 009°09'2 2.4
2015-Jul-31 06:33N 53°53' E 009°05'2 1.6
2015-Jul-31 05:33N 53°52' E 009°02'7 7.0
2015-Jul-31 04:34N 53°50' E 008°51'7 6.9
2015-Jul-31 03:33N 53°54' E 008°41'7 7.1
2015-Jul-31 02:33N 53°58' E 008°31'8 8.1
2015-Jul-31 01:34N 53°59' E 008°18'9 9.2
2015-Jul-31 00:32N 53°58' E 008°02'10 9.9
2015-Jul-30 23:33N 53°56' E 007°46'1010.4
2015-Jul-30 22:33N 53°54' E 007°29'1110.7
2015-Jul-30 21:33N 53°51' E 007°11'2211.0
2015-Jul-30 19:32N 53°46' E 006°34'1211.3
2015-Jul-30 18:28N 53°43' E 006°15'1010.9
2015-Jul-30 17:33N 53°39' E 005°59'1111.1
2015-Jul-30 16:33N 53°36' E 005°41'1111.1
2015-Jul-30 15:33N 53°33' E 005°23'1110.9
2015-Jul-30 14:33N 53°29' E 005°06'1010.2
2015-Jul-30 13:33N 53°27' E 004°49'9 8.5
2015-Jul-30 12:32N 53°20' E 004°39'18 8.9
2015-Jul-30 10:33N 53°05' E 004°26'9 8.9
2015-Jul-30 09:33N 52°57' E 004°19'9 9.0
2015-Jul-30 08:33N 52°49' E 004°11'9 8.8
2015-Jul-30 07:33N 52°42' E 004°01'9 9.0
2015-Jul-30 06:33N 52°36' E 003°52'8610.8
2015-Jul-29 22:33N 51°32' E 002°17'1111.5
2015-Jul-29 21:33N 51°21' E 002°10'1111.4
2015-Jul-29 20:33N 51°12' E 001°59'1010.4
2015-Jul-29 19:33N 51°05' E 001°47'8 7.9
2015-Jul-29 18:33N 51°02' E 001°58'1211.7
2015-Jul-29 17:33N 51°04' E 002°17'2 1.4
2015-Jul-29 16:10N 51°03' E 002°20'0 0.0
2015-Jul-29 15:31N 51°03' E 002°20'0 0.0
2015-Jul-29 14:16N 51°03' E 002°20'0 0.0
2015-Jul-29 10:07N 51°03' E 002°20'0 0.0
2015-Jul-29 07:04N 51°03' E 002°20'0 0.0
2015-Jul-29 06:25N 51°03' E 002°20'0 0.0
2015-Jul-29 05:31N 51°03' E 002°20'0 0.0
2015-Jul-29 04:31N 51°03' E 002°20'0 0.0
2015-Jul-29 03:31N 51°03' E 002°20'0 0.0
2015-Jul-28 22:04N 51°03' E 002°20'1 1.1
2015-Jul-28 21:23N 51°03' E 002°21'910.5
2015-Jul-28 20:33N 51°03' E 002°07'6 6.1
2015-Jul-28 19:33N 51°09' E 002°11'9 8.6
2015-Jul-28 18:33N 51°12' E 002°24'1010.1
2015-Jul-28 17:33N 51°19' E 002°36'9 9.4
2015-Jul-28 16:33N 51°22' E 002°50'1010.3
2015-Jul-28 15:33N 51°22' E 003°07'3 2.5
2015-Jul-28 14:31N 51°21' E 003°11'0 0.0
2015-Jul-28 13:31N 51°21' E 003°11'0 0.0
2015-Jul-28 12:29N 51°21' E 003°11'0 0.0
2015-Jul-28 11:32N 51°21' E 003°11'0 0.0
2015-Jul-28 10:32N 51°21' E 003°11'0 0.0
2015-Jul-28 09:32N 51°21' E 003°11'0 0.0
2015-Jul-28 08:31N 51°21' E 003°11'0 0.0
2015-Jul-28 07:31N 51°21' E 003°11'0 0.0
2015-Jul-28 06:31N 51°21' E 003°11'0 0.0
2015-Jul-28 05:31N 51°21' E 003°11'0 0.0
2015-Jul-28 04:31N 51°21' E 003°11'0 0.0
2015-Jul-28 03:31N 51°21' E 003°11'0 0.0
2015-Jul-28 02:31N 51°21' E 003°11'0 0.0
2015-Jul-28 01:31N 51°21' E 003°11'0 0.0
2015-Jul-28 00:31N 51°21' E 003°11'0 0.0
2015-Jul-27 23:31N 51°21' E 003°11'0 0.0
2015-Jul-27 22:31N 51°21' E 003°11'0 0.0
2015-Jul-27 21:31N 51°21' E 003°11'0 0.0
2015-Jul-27 20:31N 51°21' E 003°11'0 0.0
2015-Jul-27 19:25N 51°21' E 003°11'0 0.0
2015-Jul-27 18:08N 51°21' E 003°11'0 0.0
2015-Jul-27 17:33N 51°21' E 003°11'0 0.0
2015-Jul-27 16:28N 51°21' E 003°11'0 0.0
2015-Jul-27 15:31N 51°21' E 003°11'0 0.0
2015-Jul-27 14:30N 51°21' E 003°11'0 0.0
2015-Jul-27 13:31N 51°21' E 003°11'0 0.0
2015-Jul-27 12:28N 51°21' E 003°11'0 0.0
2015-Jul-27 11:31N 51°21' E 003°11'0 0.0
2015-Jul-27 10:31N 51°21' E 003°11'0 0.0
2015-Jul-27 09:31N 51°21' E 003°11'0 0.0
2015-Jul-27 08:31N 51°21' E 003°11'0 0.0
2015-Jul-27 07:31N 51°21' E 003°11'0 0.0
2015-Jul-27 06:31N 51°21' E 003°11'0 0.0
2015-Jul-27 05:31N 51°21' E 003°11'0 0.0
2015-Jul-27 04:31N 51°21' E 003°11'0 0.0
2015-Jul-27 03:31N 51°21' E 003°11'0 0.0
2015-Jul-27 02:31N 51°21' E 003°11'0 0.0
2015-Jul-27 01:31N 51°21' E 003°11'0 0.0
2015-Jul-27 00:31N 51°21' E 003°11'0 0.0
2015-Jul-26 23:31N 51°21' E 003°11'0 0.0
2015-Jul-26 22:31N 51°21' E 003°11'0 0.0
2015-Jul-26 21:31N 51°21' E 003°11'0 0.0
2015-Jul-26 20:31N 51°21' E 003°11'0 0.0
2015-Jul-26 19:31N 51°21' E 003°11'0 0.0
2015-Jul-26 18:31N 51°21' E 003°11'0 0.0
2015-Jul-26 17:31N 51°21' E 003°11'0 0.0
2015-Jul-26 16:31N 51°21' E 003°11'0 0.0
2015-Jul-26 15:31N 51°21' E 003°11'0 0.0
2015-Jul-26 14:31N 51°21' E 003°11'0 0.0
2015-Jul-26 13:31N 51°21' E 003°11'0 0.0
2015-Jul-26 12:31N 51°21' E 003°11'0 0.0
2015-Jul-26 11:31N 51°21' E 003°11'0 0.0
2015-Jul-26 10:31N 51°21' E 003°11'0 0.0
2015-Jul-26 09:31N 51°21' E 003°11'0 0.0
2015-Jul-26 08:31N 51°21' E 003°11'0 0.0
2015-Jul-26 07:31N 51°21' E 003°11'0 0.0
2015-Jul-26 06:31N 51°21' E 003°11'0 0.0
2015-Jul-26 05:31N 51°21' E 003°11'0 0.0
2015-Jul-26 04:28N 51°21' E 003°11'0 0.0
2015-Jul-26 03:31N 51°21' E 003°11'0 0.0
2015-Jul-26 02:31N 51°21' E 003°11'0 0.0
2015-Jul-25 19:28N 51°21' E 003°11'0 0.0
2015-Jul-25 18:28N 51°21' E 003°11'0 0.0
2015-Jul-25 17:31N 51°21' E 003°11'0 0.0
2015-Jul-25 16:31N 51°21' E 003°11'0 0.0
2015-Jul-25 15:31N 51°21' E 003°11'0 0.0
2015-Jul-25 14:31N 51°21' E 003°11'0 0.0
2015-Jul-25 13:31N 51°21' E 003°11'0 0.0
2015-Jul-25 12:31N 51°21' E 003°11'0 0.0
2015-Jul-25 11:31N 51°21' E 003°11'0 0.0
2015-Jul-25 10:31N 51°21' E 003°11'0 0.0
2015-Jul-25 09:31N 51°21' E 003°11'0 0.0
2015-Jul-25 08:31N 51°21' E 003°11'0 0.0
2015-Jul-25 07:31N 51°21' E 003°11'0 0.0
2015-Jul-25 06:31N 51°21' E 003°11'0 0.0
2015-Jul-25 05:31N 51°21' E 003°11'0 0.0
2015-Jul-25 04:31N 51°21' E 003°11'0 0.0
2015-Jul-25 03:31N 51°21' E 003°11'0 0.0
2015-Jul-25 02:31N 51°21' E 003°11'0 0.0
2015-Jul-25 01:25N 51°21' E 003°11'0 0.0
2015-Jul-25 00:31N 51°21' E 003°11'0 0.0
2015-Jul-24 23:31N 51°21' E 003°11'0 0.0
2015-Jul-24 22:31N 51°21' E 003°11'0 0.0
2015-Jul-24 21:31N 51°21' E 003°11'0 0.0
2015-Jul-24 20:31N 51°21' E 003°11'0 0.0
2015-Jul-24 19:31N 51°21' E 003°11'0 0.0
2015-Jul-24 18:31N 51°21' E 003°11'0 0.0
2015-Jul-24 17:31N 51°21' E 003°11'0 0.0
2015-Jul-24 16:31N 51°21' E 003°11'0 0.0
2015-Jul-24 15:31N 51°21' E 003°11'0 0.0
2015-Jul-24 14:31N 51°21' E 003°11'0 0.0
2015-Jul-24 13:31N 51°21' E 003°11'0 0.0
2015-Jul-24 12:31N 51°21' E 003°11'0 0.0
2015-Jul-24 11:31N 51°21' E 003°11'0 0.0
2015-Jul-24 10:31N 51°21' E 003°11'0 0.0
2015-Jul-24 09:31N 51°21' E 003°11'0 0.0
2015-Jul-24 08:31N 51°21' E 003°11'0 0.0
2015-Jul-24 07:31N 51°21' E 003°11'0 0.0
2015-Jul-24 06:31N 51°21' E 003°11'0 0.0
2015-Jul-24 05:28N 51°21' E 003°11'0 0.0
2015-Jul-24 04:31N 51°21' E 003°11'0 0.0
2015-Jul-24 03:31N 51°21' E 003°11'0 0.0
2015-Jul-24 02:28N 51°21' E 003°11'0 0.0
2015-Jul-24 01:31N 51°21' E 003°11'0 0.0
2015-Jul-24 00:31N 51°21' E 003°11'0 0.0
2015-Jul-23 23:28N 51°21' E 003°11'0 0.0
2015-Jul-23 22:31N 51°21' E 003°11'0 0.0
2015-Jul-23 21:28N 51°21' E 003°11'0 0.0
2015-Jul-23 20:31N 51°21' E 003°11'0 0.0
2015-Jul-23 18:25N 51°21' E 003°11'0 0.0
2015-Jul-23 06:31N 51°21' E 003°11'0 0.0
2015-Jul-23 05:31N 51°21' E 003°11'0 0.0
2015-Jul-23 04:10N 51°21' E 003°11'0 0.0
2015-Jul-23 03:31N 51°21' E 003°11'0 0.0
2015-Jul-22 17:07N 51°21' E 003°11'0 0.0
2015-Jul-22 16:31N 51°21' E 003°11'0 0.0
2015-Jul-22 15:31N 51°21' E 003°11'0 0.0
2015-Jul-22 14:31N 51°21' E 003°11'0 0.0
2015-Jul-22 13:31N 51°21' E 003°11'0 0.0
2015-Jul-22 12:31N 51°21' E 003°11'0 0.0
2015-Jul-22 11:28N 51°21' E 003°11'0 0.0
2015-Jul-22 10:31N 51°21' E 003°11'  

Dump ship's entire track history